Time;durP1;ratioP1;P1;durP2;ratioP2;P2;SDS_P1;SDS_P2;PMS_P1;PMS_P2;Temp;Humidity;BMP_temperature;BMP_pressure;BME280_temperature;BME280_humidity;BME280_pressure;Samples;Min_cycle;Max_cycle;Signal;HPM_P1;HPM_P2
2022/03/07 00:02:12;;;;;;;7.50;4.10;;;;;;;2.41;100.00;94140.75;5053435;28;20188;-60
2022/03/07 00:04:38;;;;;;;5.33;3.53;;;;;;;2.52;100.00;94148.41;5053610;28;20580;-61
2022/03/07 00:07:04;;;;;;;7.27;4.27;;;;;;;2.62;100.00;94156.19;5053275;28;20252;-61
2022/03/07 00:09:29;;;;;;;7.17;4.23;;;;;;;2.71;100.00;94154.81;5053376;28;20644;-65
2022/03/07 00:11:55;;;;;;;6.47;4.37;;;;;;;2.82;100.00;94165.78;5053676;28;20284;-63
2022/03/07 00:14:21;;;;;;;7.00;3.57;;;;;;;2.89;100.00;94164.50;5053391;28;20181;-62
2022/03/07 00:16:46;;;;;;;6.33;4.00;;;;;;;2.78;100.00;94156.84;5053471;28;20236;-64
2022/03/07 00:19:12;;;;;;;6.63;3.37;;;;;;;2.78;100.00;94156.84;5053032;28;20182;-63
2022/03/07 00:21:38;;;;;;;7.57;4.10;;;;;;;2.80;100.00;94144.19;5052935;28;20197;-65
2022/03/07 00:24:05;;;;;;;5.73;3.63;;;;;;;2.75;100.00;94151.22;5053078;28;20185;-63
2022/03/07 00:26:30;;;;;;;9.83;4.40;;;;;;;2.61;100.00;94143.75;5053347;28;20212;-61
2022/03/07 00:28:56;;;;;;;6.57;3.97;;;;;;;2.63;100.00;94145.25;5053333;28;20194;-63
2022/03/07 00:31:22;;;;;;;8.27;4.50;;;;;;;2.65;100.00;94143.44;5053285;28;20204;-60
2022/03/07 00:33:48;;;;;;;6.47;4.33;;;;;;;2.46;100.00;94136.25;5034927;28;20189;-62
2022/03/07 00:36:14;;;;;;;9.10;4.60;;;;;;;2.46;100.00;94135.47;5052559;28;20213;-62
2022/03/07 00:38:40;;;;;;;8.90;5.07;;;;;;;2.45;100.00;94136.34;5052649;28;20196;-62
2022/03/07 00:41:08;;;;;;;8.03;5.00;;;;;;;2.52;100.00;94140.09;5053131;28;20687;-62
2022/03/07 00:43:33;;;;;;;10.57;5.13;;;;;;;2.46;100.00;94122.94;5052646;28;20239;-62
2022/03/07 00:45:59;;;;;;;9.20;5.27;;;;;;;2.40;100.00;94121.56;5052564;28;20652;-64
2022/03/07 00:48:24;;;;;;;8.87;5.30;;;;;;;2.39;100.00;94124.19;5052468;28;20189;-61
2022/03/07 00:50:51;;;;;;;9.70;5.70;;;;;;;2.42;100.00;94122.28;5052217;28;20220;-60
2022/03/07 00:53:19;;;;;;;7.57;4.53;;;;;;;2.41;100.00;94118.19;5052563;28;20174;-62
2022/03/07 00:55:45;;;;;;;9.43;5.50;;;;;;;2.37;100.00;94115.97;5052743;28;20323;-64
2022/03/07 00:58:10;;;;;;;10.87;5.23;;;;;;;2.37;100.00;94113.44;5034526;28;20233;-63
2022/03/07 01:00:37;;;;;;;9.50;5.97;;;;;;;2.11;100.00;94110.03;5034035;28;20213;-62
2022/03/07 01:03:04;;;;;;;8.57;5.33;;;;;;;2.13;100.00;94105.75;5052150;28;20639;-62
2022/03/07 01:05:29;;;;;;;11.07;6.17;;;;;;;2.10;100.00;94107.63;5052389;28;20205;-62
2022/03/07 01:07:55;;;;;;;13.03;5.50;;;;;;;2.23;100.00;94113.50;5052263;28;20604;-62
2022/03/07 01:10:20;;;;;;;9.53;5.23;;;;;;;2.28;100.00;94109.00;5052044;28;20283;-62
2022/03/07 01:12:46;;;;;;;11.63;5.20;;;;;;;2.24;100.00;94110.09;5052049;28;20252;-64
2022/03/07 01:15:12;;;;;;;7.70;5.17;;;;;;;2.17;100.00;94103.84;5052201;28;20271;-62
2022/03/07 01:17:37;;;;;;;9.30;5.47;;;;;;;2.36;100.00;94109.34;5034077;28;20181;-62
2022/03/07 01:20:07;;;;;;;10.67;5.40;;;;;;;2.38;100.00;94107.56;5052045;28;20203;-61
2022/03/07 01:22:34;;;;;;;11.60;5.60;;;;;;;2.34;100.00;94104.41;5051997;28;20622;-62
2022/03/07 01:24:59;;;;;;;9.27;5.97;;;;;;;2.42;100.00;94119.00;5051814;28;20176;-63
2022/03/07 01:27:25;;;;;;;8.03;5.17;;;;;;;2.69;100.00;94122.28;5051661;28;20185;-62
2022/03/07 01:29:50;;;;;;;7.70;4.50;;;;;;;2.83;100.00;94119.69;5033732;28;20566;-60
2022/03/07 01:32:16;;;;;;;10.20;4.90;;;;;;;2.65;100.00;94115.84;5052321;28;20203;-62
2022/03/07 01:34:41;;;;;;;9.70;5.70;;;;;;;2.47;100.00;94099.44;5051667;28;20656;-61
2022/03/07 01:37:07;;;;;;;6.37;4.27;;;;;;;2.41;100.00;94102.34;5033721;28;20216;-62
2022/03/07 01:39:32;;;;;;;9.90;5.30;;;;;;;2.30;100.00;94109.72;5033755;28;20599;-61
2022/03/07 01:41:58;;;;;;;10.53;5.70;;;;;;;2.33;100.00;94107.00;5051970;28;20277;-60
2022/03/07 01:44:27;;;;;;;8.20;4.83;;;;;;;2.49;100.00;94105.16;5051657;28;20174;-64
2022/03/07 01:46:53;;;;;;;9.97;5.40;;;;;;;2.48;100.00;94101.84;5033799;28;20220;-62
2022/03/07 01:49:19;;;;;;;7.40;4.87;;;;;;;2.53;100.00;94104.06;5051551;28;20205;-61
2022/03/07 01:51:46;;;;;;;6.70;5.13;;;;;;;2.50;100.00;94100.03;5051962;28;20699;-60
2022/03/07 01:54:14;;;;;;;9.53;4.87;;;;;;;2.53;100.00;94097.34;5076659;23;20642;-61
2022/03/07 01:56:42;;;;;;;8.17;5.30;;;;;;;2.52;100.00;94095.72;5091615;28;20260;-60
2022/03/07 01:59:21;;;;;;;7.47;4.57;;;;;;;2.50;100.00;94106.78;5090538;28;20187;-63
2022/03/07 02:01:47;;;;;;;7.30;4.43;;;;;;;2.44;100.00;94097.91;5091582;28;20214;-62
2022/03/07 02:04:13;;;;;;;7.50;4.90;;;;;;;2.39;100.00;94096.59;5091853;28;20171;-64
2022/03/07 02:06:39;;;;;;;6.20;4.43;;;;;;;2.45;100.00;94103.75;5091863;28;20304;-62
2022/03/07 02:09:06;;;;;;;6.70;4.37;;;;;;;2.44;100.00;94090.41;5092127;28;20184;-63
2022/03/07 02:11:32;;;;;;;7.43;4.27;;;;;;;2.48;100.00;94101.06;5091659;28;20224;-64
2022/03/07 02:13:58;;;;;;;7.30;4.63;;;;;;;2.46;100.00;94093.59;5094637;28;20187;-65
2022/03/07 02:16:24;;;;;;;7.73;4.63;;;;;;;2.40;100.00;94091.47;5095767;28;20257;-63
2022/03/07 02:18:51;;;;;;;8.40;4.93;;;;;;;2.32;100.00;94091.16;5096400;28;20177;-65
2022/03/07 02:21:19;;;;;;;9.60;4.97;;;;;;;2.24;100.00;94095.84;5094311;28;20196;-63
2022/03/07 02:23:45;;;;;;;6.70;4.37;;;;;;;2.30;100.00;94094.69;5096239;28;20271;-63
2022/03/07 02:26:15;;;;;;;7.60;5.40;;;;;;;2.24;100.00;94090.03;5095439;28;20192;-62
2022/03/07 02:28:43;;;;;;;8.33;4.97;;;;;;;2.33;100.00;94095.28;5096037;28;20188;-62
2022/03/07 02:31:10;;;;;;;6.43;4.27;;;;;;;2.19;100.00;94102.03;5097446;22;20274;-64
2022/03/07 02:33:36;;;;;;;8.70;4.33;;;;;;;2.24;100.00;94105.09;5074971;28;20268;-64
2022/03/07 02:36:03;;;;;;;6.27;4.47;;;;;;;2.13;100.00;94087.38;5075219;28;20224;-64
2022/03/07 02:38:29;;;;;;;7.57;4.67;;;;;;;2.29;100.00;94098.06;5088210;22;20274;-62
2022/03/07 02:40:55;;;;;;;6.50;4.33;;;;;;;2.32;100.00;94091.16;5074962;28;20730;-63
2022/03/07 02:43:20;;;;;;;6.77;4.80;;;;;;;2.24;100.00;94090.03;5075457;28;20212;-62
2022/03/07 02:45:46;;;;;;;5.03;3.97;;;;;;;2.13;100.00;94100.72;5074741;28;20732;-64
2022/03/07 02:48:12;;;;;;;5.60;3.93;;;;;;;2.19;100.00;94097.84;5074940;28;20306;-60
2022/03/07 02:50:37;;;;;;;5.33;4.10;;;;;;;2.20;100.00;94098.66;5074823;28;20204;-63
2022/03/07 02:53:03;;;;;;;6.37;4.43;;;;;;;2.19;100.00;94092.00;5075185;28;20189;-63
2022/03/07 02:55:30;;;;;;;6.00;4.10;;;;;;;2.16;100.00;94102.25;5074572;28;20207;-65
2022/03/07 02:57:56;;;;;;;8.13;4.70;;;;;;;2.11;100.00;94099.19;5075173;28;20286;-60
2022/03/07 03:00:21;;;;;;;5.70;4.10;;;;;;;2.14;100.00;94089.00;5074643;28;20228;-63
2022/03/07 03:02:46;;;;;;;7.37;4.20;;;;;;;2.17;100.00;94086.28;5081217;22;20670;-60
2022/03/07 03:05:12;;;;;;;6.77;4.10;;;;;;;2.19;100.00;94087.00;5074689;28;20211;-63
2022/03/07 03:07:38;;;;;;;6.87;4.30;;;;;;;2.36;100.00;94106.84;5074682;28;20198;-62
2022/03/07 03:10:05;;;;;;;7.40;4.37;;;;;;;2.34;100.00;94099.38;5074294;28;20220;-63
2022/03/07 03:12:30;;;;;;;7.87;4.70;;;;;;;2.32;100.00;94098.69;5075169;28;20213;-65
2022/03/07 03:14:56;;;;;;;6.37;4.23;;;;;;;2.30;100.00;94107.22;5056240;28;20219;-61
2022/03/07 03:17:21;;;;;;;5.90;4.07;;;;;;;2.30;100.00;94102.22;5074550;28;20322;-61
2022/03/07 03:19:47;;;;;;;7.97;4.70;;;;;;;2.33;100.00;94104.50;5074118;28;20222;-62
2022/03/07 03:22:12;;;;;;;6.43;4.37;;;;;;;2.35;100.00;94107.72;5074566;28;20184;-65
2022/03/07 03:24:38;;;;;;;6.13;4.20;;;;;;;2.34;100.00;94111.94;5073595;28;20172;-64
2022/03/07 03:27:04;;;;;;;5.97;4.27;;;;;;;2.34;100.00;94111.94;5056106;28;20211;-65
2022/03/07 03:29:30;;;;;;;8.53;4.87;;;;;;;2.25;100.00;94111.69;5056047;28;20188;-61
2022/03/07 03:31:56;;;;;;;6.93;5.13;;;;;;;2.26;100.00;94109.09;5062603;22;20285;-60
2022/03/07 03:34:22;;;;;;;6.00;4.20;;;;;;;2.27;100.00;94104.88;5074006;28;20650;-62
2022/03/07 03:36:47;;;;;;;8.43;5.03;;;;;;;2.26;100.00;94111.59;5074030;28;20223;-61
2022/03/07 03:39:13;;;;;;;7.90;4.43;;;;;;;2.40;100.00;94108.25;5074082;28;20185;-66
2022/03/07 03:41:39;;;;;;;9.00;4.83;;;;;;;2.51;100.00;94110.88;5073895;28;20197;-62
2022/03/07 03:44:04;;;;;;;9.53;5.27;;;;;;;2.42;100.00;94108.97;5073735;28;20180;-63
2022/03/07 03:46:30;;;;;;;8.07;5.20;;;;;;;2.39;100.00;94104.94;5055956;28;20200;-62
2022/03/07 03:48:55;;;;;;;7.73;4.37;;;;;;;2.41;100.00;94107.34;5081714;22;20196;-61
2022/03/07 03:51:21;;;;;;;6.50;4.43;;;;;;;2.44;100.00;94114.69;5078968;22;20236;-64
2022/03/07 03:53:46;;;;;;;6.07;4.40;;;;;;;2.39;100.00;94124.19;5073864;28;20259;-62
2022/03/07 03:56:12;;;;;;;7.40;4.60;;;;;;;2.42;100.00;94117.28;5073575;28;20216;-64
2022/03/07 03:58:37;;;;;;;9.50;4.60;;;;;;;2.35;100.00;94107.72;5073361;28;20181;-62
2022/03/07 04:01:03;;;;;;;5.97;4.20;;;;;;;2.40;100.00;94108.25;5073606;28;20209;-62
2022/03/07 04:03:28;;;;;;;8.20;4.57;;;;;;;2.41;100.00;94110.66;5073664;28;20550;-62
2022/03/07 04:05:53;;;;;;;5.07;3.83;;;;;;;2.40;100.00;94110.75;5073410;28;20586;-62
2022/03/07 04:08:19;;;;;;;6.53;4.70;;;;;;;2.33;100.00;94110.34;5073337;28;20254;-63
2022/03/07 04:10:46;;;;;;;7.47;4.60;;;;;;;2.31;100.00;94111.31;5078146;23;20289;-64
2022/03/07 04:13:12;;;;;;;7.80;4.70;;;;;;;2.46;100.00;94118.69;5092297;28;20176;-63
2022/03/07 04:15:38;;;;;;;6.20;4.47;;;;;;;2.42;100.00;94112.25;5088220;22;20236;-61
2022/03/07 04:18:06;;;;;;;6.67;5.10;;;;;;;2.37;100.00;94115.97;5072890;28;20188;-63
2022/03/07 04:20:33;;;;;;;7.73;4.03;;;;;;;2.39;100.00;94109.94;5072809;28;20269;-63
2022/03/07 04:22:59;;;;;;;9.00;4.80;;;;;;;2.30;100.00;94114.75;5088220;22;20224;-64
2022/03/07 04:25:25;;;;;;;6.70;4.37;;;;;;;2.35;100.00;94117.75;5072945;28;20208;-61
2022/03/07 04:27:50;;;;;;;5.80;4.50;;;;;;;2.47;100.00;94124.50;5055093;28;20678;-62
2022/03/07 04:30:16;;;;;;;6.50;4.30;;;;;;;2.32;100.00;94117.97;5072900;28;20273;-62
2022/03/07 04:32:41;;;;;;;5.83;4.27;;;;;;;2.33;100.00;94115.34;5073317;28;20191;-64
2022/03/07 04:35:09;;;;;;;8.43;4.80;;;;;;;2.14;100.00;94109.06;5072424;28;20201;-62
2022/03/07 04:37:38;;;;;;;9.20;5.33;;;;;;;2.24;100.00;94110.09;5072597;28;20264;-61
2022/03/07 04:40:04;;;;;;;7.70;4.17;;;;;;;2.36;100.00;94125.19;5072789;28;20201;-65
2022/03/07 04:42:30;;;;;;;5.07;4.23;;;;;;;2.37;100.00;94115.97;5072990;28;20643;-62
2022/03/07 04:44:55;;;;;;;8.00;4.80;;;;;;;2.42;100.00;94116.50;5054631;28;20227;-64
2022/03/07 04:47:21;;;;;;;5.83;4.33;;;;;;;2.43;100.00;94120.59;5054691;28;20192;-62
2022/03/07 04:49:46;;;;;;;7.23;4.73;;;;;;;2.43;100.00;94118.09;5072184;28;20211;-62
2022/03/07 04:52:15;;;;;;;5.33;4.30;;;;;;;2.36;100.00;94121.88;5072774;28;20641;-66
2022/03/07 04:54:40;;;;;;;6.17;4.03;;;;;;;2.23;100.00;94114.31;5072479;28;20214;-60
2022/03/07 04:57:06;;;;;;;7.07;4.10;;;;;;;2.37;100.00;94116.78;5072506;28;20612;-63
2022/03/07 04:59:31;;;;;;;5.87;3.87;;;;;;;2.42;100.00;94119.78;5054105;28;20183;-61
2022/03/07 05:01:56;;;;;;;6.07;3.70;;;;;;;2.44;100.00;94122.22;5072401;28;20686;-63
2022/03/07 05:04:22;;;;;;;6.80;4.27;;;;;;;2.46;100.00;94113.69;5054265;28;20646;-61
2022/03/07 05:06:48;;;;;;;6.43;4.43;;;;;;;2.53;100.00;94127.47;5078641;22;20252;-62
2022/03/07 05:09:13;;;;;;;6.67;4.30;;;;;;;2.52;100.00;94122.53;5072115;28;20177;-64
2022/03/07 05:11:39;;;;;;;8.10;4.63;;;;;;;2.41;100.00;94123.19;5072603;28;20197;-63
2022/03/07 05:14:04;;;;;;;5.83;3.93;;;;;;;2.40;100.00;94119.06;5071904;28;20689;-63
2022/03/07 05:16:29;;;;;;;7.50;4.70;;;;;;;2.46;100.00;94120.41;5054134;28;20248;-65
2022/03/07 05:18:55;;;;;;;6.43;3.73;;;;;;;2.40;100.00;94120.78;5071725;28;20592;-64
2022/03/07 05:21:21;;;;;;;6.70;4.03;;;;;;;2.36;100.00;94129.41;5053973;28;20209;-65
2022/03/07 05:23:46;;;;;;;6.13;4.07;;;;;;;2.46;100.00;94128.72;5071965;28;20173;-62
2022/03/07 05:26:12;;;;;;;5.73;3.57;;;;;;;2.43;100.00;94130.63;5037185;28;20209;-66
2022/03/07 05:28:37;;;;;;;4.20;3.33;;;;;;;2.66;100.00;94140.03;5071833;28;20184;-65
2022/03/07 05:31:03;;;;;;;4.87;4.07;;;;;;;2.61;100.00;94133.72;5071559;28;20216;-62
2022/03/07 05:33:28;;;;;;;6.73;4.77;;;;;;;2.52;100.00;94132.56;5071721;28;20672;-64
2022/03/07 05:35:54;;;;;;;5.83;4.67;;;;;;;2.62;100.00;94138.63;5071951;28;20243;-64
2022/03/07 05:38:20;;;;;;;7.50;5.00;;;;;;;2.63;100.00;94129.41;5071722;28;20181;-64
2022/03/07 05:40:45;;;;;;;5.47;3.93;;;;;;;2.69;100.00;94127.28;5070919;28;20214;-61
2022/03/07 05:43:12;;;;;;;4.80;3.53;;;;;;;2.78;100.00;94143.47;5071317;28;20184;-62
2022/03/07 05:45:45;;;;;;;3.50;3.20;;;;;;;2.76;100.00;94136.06;5071599;28;20207;-62
2022/03/07 05:48:10;;;;;;;3.87;3.33;;;;;;;2.77;100.00;94127.63;5053140;28;20279;-62
2022/03/07 05:50:35;;;;;;;6.80;5.23;;;;;;;5.13;100.00;94119.78;5054151;28;20231;-63
2022/03/07 05:53:01;;;;;;;6.73;5.33;;;;;;;5.16;100.00;94118.78;5071505;28;20188;-66
2022/03/07 05:55:27;;;;;;;6.30;4.70;;;;;;;4.61;100.00;94126.94;5073498;23;20229;-65
2022/03/07 05:57:59;;;;;;;5.17;3.87;;;;;;;4.31;100.00;94129.88;5071800;28;20183;-65
2022/03/07 06:00:25;;;;;;;5.47;3.80;;;;;;;3.78;100.00;94122.63;5071729;28;20291;-61
2022/03/07 06:02:50;;;;;;;7.23;5.07;;;;;;;3.61;100.00;94133.03;5071508;28;20182;-65
2022/03/07 06:05:16;;;;;;;5.27;4.10;;;;;;;3.45;100.00;94135.75;5072310;28;20197;-64
2022/03/07 06:07:42;;;;;;;4.80;3.47;;;;;;;3.27;100.00;94130.19;5072066;28;20204;-61
2022/03/07 06:10:08;;;;;;;3.97;3.30;;;;;;;3.40;100.00;94146.09;5063135;22;20217;-62
2022/03/07 06:12:33;;;;;;;5.30;4.10;;;;;;;3.49;100.00;94154.75;5072073;28;20204;-64
2022/03/07 06:15:03;;;;;;;4.43;3.57;;;;;;;3.36;100.00;94139.66;5071779;28;20178;-64
2022/03/07 06:17:33;;;;;;;6.57;4.00;;;;;;;3.28;100.00;94141.06;5053434;28;20268;-62
2022/03/07 06:20:00;;;;;;;4.23;3.23;;;;;;;3.09;100.00;94136.41;5053895;28;20678;-63
2022/03/07 06:22:25;;;;;;;3.57;3.13;;;;;;;3.06;100.00;94141.66;5071842;28;20177;-61
2022/03/07 06:24:51;;;;;;;8.40;4.87;;;;;;;2.97;100.00;94149.75;5071748;28;20223;-62
2022/03/07 06:27:16;;;;;;;4.63;3.67;;;;;;;2.91;100.00;94142.59;5071242;28;20673;-62
2022/03/07 06:29:41;;;;;;;6.43;4.77;;;;;;;2.80;100.00;94137.47;5071677;28;20189;-63
2022/03/07 06:32:07;;;;;;;4.83;4.27;;;;;;;2.99;100.00;94147.16;5070954;28;20207;-62
2022/03/07 06:34:33;;;;;;;8.47;5.70;;;;;;;2.98;100.00;94138.81;5053383;28;20193;-63
2022/03/07 06:37:00;;;;;;;9.03;4.83;;;;;;;3.07;100.00;94144.97;5071038;28;20721;-62
2022/03/07 06:39:27;;;;;;;7.63;4.40;;;;;;;2.90;100.00;94141.00;5053371;28;20185;-63
2022/03/07 06:41:56;;;;;;;6.03;3.83;;;;;;;2.90;100.00;94150.25;5070970;28;20281;-64
2022/03/07 06:44:25;;;;;;;6.93;4.00;;;;;;;2.74;100.00;94139.56;5071385;28;20240;-63
2022/03/07 06:46:50;;;;;;;6.87;4.27;;;;;;;2.79;100.00;94133.34;5070505;28;20203;-62
2022/03/07 06:49:16;;;;;;;5.90;4.17;;;;;;;2.83;100.00;94137.28;5071143;28;20250;-63
2022/03/07 06:51:41;;;;;;;6.20;3.80;;;;;;;2.70;100.00;94128.09;5071088;28;20289;-61
2022/03/07 06:54:07;;;;;;;8.43;4.70;;;;;;;2.82;100.00;94127.34;5053116;28;20188;-62
2022/03/07 06:56:33;;;;;;;8.60;5.50;;;;;;;2.91;100.00;94131.78;5070845;28;20586;-63
2022/03/07 06:58:59;;;;;;;7.00;4.97;;;;;;;3.10;100.00;94142.25;5053623;28;20190;-62
2022/03/07 07:01:25;;;;;;;6.63;4.33;;;;;;;3.19;100.00;94142.44;5056180;28;20193;-61
2022/03/07 07:03:51;;;;;;;6.93;5.10;;;;;;;3.27;100.00;94154.53;5074547;28;20197;-62
2022/03/07 07:06:16;;;;;;;6.40;4.47;;;;;;;3.34;100.00;94150.72;5074268;28;20201;-61
2022/03/07 07:08:42;;;;;;;9.57;4.40;;;;;;;3.41;100.00;94161.97;5074259;28;20234;-62
2022/03/07 07:11:07;;;;;;;6.53;4.27;;;;;;;3.48;100.00;94152.31;5074136;28;20246;-61
2022/03/07 07:13:33;;;;;;;8.57;4.83;;;;;;;3.47;100.00;94165.78;5074400;28;20269;-65
2022/03/07 07:15:58;;;;;;;6.97;3.80;;;;;;;3.34;100.00;94156.53;5056122;28;20227;-62
2022/03/07 07:18:24;;;;;;;8.87;4.60;;;;;;;3.28;100.00;94146.88;5074377;28;20216;-62
2022/03/07 07:20:51;;;;;;;5.70;3.93;;;;;;;3.16;100.00;94151.91;5073856;28;20196;-62
2022/03/07 07:23:21;;;;;;;4.90;3.83;;;;;;;3.11;100.00;94142.13;5073945;28;20613;-62
2022/03/07 07:25:47;;;;;;;6.17;4.03;;;;;;;3.40;100.00;94161.16;5056183;28;20690;-63
2022/03/07 07:28:13;;;;;;;11.93;4.20;;;;;;;3.50;100.00;94158.84;5073820;28;20682;-60
2022/03/07 07:30:39;;;;;;;5.13;3.77;;;;;;;3.60;100.00;94169.91;5080153;22;20229;-61
2022/03/07 07:33:05;;;;;;;7.27;3.63;;;;;;;3.69;100.00;94163.47;5074067;28;20184;-63
2022/03/07 07:35:33;;;;;;;8.67;3.97;;;;;;;3.65;100.00;94169.63;5074100;28;20243;-60
2022/03/07 07:38:00;;;;;;;5.80;3.70;;;;;;;3.74;100.00;94163.97;5073605;28;20547;-62
2022/03/07 07:40:26;;;;;;;5.50;3.57;;;;;;;3.86;100.00;94174.00;5073889;28;20228;-61
2022/03/07 07:42:51;;;;;;;5.33;3.97;;;;;;;4.09;100.00;94192.59;5073410;28;20223;-62
2022/03/07 07:45:16;;;;;;;8.30;3.87;;;;;;;4.19;100.00;94186.84;5073548;28;20208;-65
2022/03/07 07:47:43;;;;;;;7.83;3.73;;;;;;;4.19;100.00;94175.97;5055994;28;20181;-63
2022/03/07 07:50:09;;;;;;;11.30;4.40;;;;;;;4.41;100.00;94205.50;5073872;28;20678;-65
2022/03/07 07:52:34;;;;;;;8.93;3.50;;;;;;;4.51;100.00;94192.19;5080010;22;20252;-65
2022/03/07 07:55:02;;;;;;;9.83;4.57;;;;;;;4.55;100.00;94198.63;5073816;28;20228;-64
2022/03/07 07:57:28;;;;;;;6.43;4.27;;;;;;;4.56;100.00;94180.13;5073067;28;20223;-63
2022/03/07 07:59:54;;;;;;;4.27;3.10;;;;;;;4.70;100.00;94196.78;5073470;28;20178;-65
2022/03/07 08:02:19;;;;;;;6.33;3.27;;;;;;;4.72;100.00;94222.66;5055718;28;20174;-63
2022/03/07 08:04:44;;;;;;;6.80;3.60;;;;;;;4.63;100.00;94224.06;5079897;22;20661;-61
2022/03/07 08:07:10;;;;;;;5.50;3.60;;;;;;;4.53;100.00;94213.03;5055265;28;20186;-60
2022/03/07 08:09:36;;;;;;;5.30;3.50;;;;;;;4.38;100.00;94201.50;5073432;28;20188;-64
2022/03/07 08:12:02;;;;;;;5.57;3.13;;;;;;;4.31;100.00;94184.41;5073124;28;20201;-64
2022/03/07 08:14:28;;;;;;;4.13;3.20;;;;;;;4.11;100.00;94180.72;5079619;22;20228;-64
2022/03/07 08:16:53;;;;;;;5.30;3.63;;;;;;;3.99;100.00;94168.97;5072966;28;20208;-63
2022/03/07 08:19:19;;;;;;;4.20;3.20;;;;;;;3.90;100.00;94170.41;5073204;28;20186;-60
2022/03/07 08:21:44;;;;;;;4.20;3.17;;;;;;;3.81;100.00;94171.03;5072928;28;20197;-62
2022/03/07 08:24:10;;;;;;;4.50;2.93;;;;;;;3.83;100.00;94173.44;5055128;28;20243;-61
2022/03/07 08:26:36;;;;;;;3.67;3.37;;;;;;;3.92;100.00;94171.09;5074761;22;20247;-62
2022/03/07 08:29:01;;;;;;;7.83;4.07;;;;;;;4.00;100.00;94168.09;5052750;28;20307;-65
2022/03/07 08:31:27;;;;;;;3.37;3.00;;;;;;;3.98;100.00;94178.22;5052844;28;20206;-62
2022/03/07 08:33:52;;;;;;;3.57;2.77;;;;;;;4.08;100.00;94186.75;5052639;28;20188;-61
2022/03/07 08:36:18;;;;;;;4.17;3.00;;;;;;;4.19;100.00;94196.09;5052592;28;20225;-63
2022/03/07 08:38:43;;;;;;;4.03;3.13;;;;;;;4.30;100.00;94197.91;5052588;28;20178;-63
2022/03/07 08:41:09;;;;;;;4.50;3.33;;;;;;;4.20;100.00;94187.66;5052599;28;20222;-62
2022/03/07 08:43:34;;;;;;;18.20;3.50;;;;;;;4.21;100.00;94166.63;5052375;28;20182;-63
2022/03/07 08:46:00;;;;;;;8.27;3.97;;;;;;;4.39;100.00;94165.38;5052432;28;20221;-63
2022/03/07 08:48:27;;;;;;;6.37;3.73;;;;;;;4.45;100.00;94201.88;5052463;28;20214;-63
2022/03/07 08:50:54;;;;;;;5.00;3.10;;;;;;;4.38;100.00;94198.19;5067850;22;20277;-63
2022/03/07 08:53:19;;;;;;;5.53;3.20;;;;;;;4.34;100.00;94174.16;5091199;28;20180;-62
2022/03/07 08:55:45;;;;;;;4.33;3.07;;;;;;;4.53;100.00;94230.66;5092672;28;20266;-61
2022/03/07 08:58:10;;;;;;;3.97;3.40;;;;;;;4.64;100.00;94238.28;5092630;28;20548;-62
2022/03/07 09:00:37;;;;;;;7.90;4.30;;;;;;;4.51;100.00;94240.00;5092423;28;20208;-62
2022/03/07 09:03:06;;;;;;;3.77;2.97;;;;;;;4.17;100.00;94207.97;5099572;22;20173;-62
2022/03/07 09:05:32;;;;;;;5.43;4.07;;;;;;;4.05;100.00;94196.22;5053444;28;20218;-65
2022/03/07 09:07:57;;;;;;;5.70;3.90;;;;;;;3.99;100.00;94179.03;5072128;28;20202;-63
2022/03/07 09:10:23;;;;;;;6.77;4.13;;;;;;;3.97;100.00;94168.28;5053906;28;20273;-61
2022/03/07 09:12:49;;;;;;;8.43;5.03;;;;;;;4.03;100.00;94168.69;5072112;28;20272;-64
2022/03/07 09:15:14;;;;;;;7.17;4.37;;;;;;;4.19;100.00;94165.94;5071985;28;20682;-62
2022/03/07 09:17:41;;;;;;;11.67;6.20;;;;;;;4.28;100.00;94181.19;5053620;28;20177;-62
2022/03/07 09:20:08;;;;;;;11.57;6.37;;;;;;;4.49;100.00;94183.97;5071763;28;20201;-62
2022/03/07 09:22:34;;;;;;;12.80;7.53;;;;;;;4.46;100.00;94194.25;5071445;28;20184;-62
2022/03/07 09:25:00;;;;;;;12.00;7.07;;;;;;;4.42;100.00;94182.78;5072185;28;20186;-62
2022/03/07 09:27:26;;;;;;;8.33;5.93;;;;;;;4.47;100.00;94190.00;5071656;28;20235;-63
2022/03/07 09:29:52;;;;;;;8.83;5.40;;;;;;;4.68;100.00;94217.03;5072281;28;20177;-62
2022/03/07 09:32:17;;;;;;;5.80;4.60;;;;;;;4.46;100.00;94216.91;5071738;28;20165;-62
2022/03/07 09:34:43;;;;;;;5.93;4.27;;;;;;;4.19;100.00;94194.41;5072212;28;20256;-64
2022/03/07 09:37:10;;;;;;;8.57;5.57;;;;;;;4.20;100.00;94188.44;5078261;22;20201;-61
2022/03/07 09:39:36;;;;;;;5.60;4.80;;;;;;;4.18;100.00;94174.41;5053583;28;20224;-63
2022/03/07 09:42:03;;;;;;;8.17;5.87;;;;;;;4.26;100.00;94169.66;5071621;28;20213;-63
2022/03/07 09:44:29;;;;;;;8.23;5.87;;;;;;;4.26;100.00;94204.88;5071525;28;20702;-63
2022/03/07 09:47:00;;;;;;;8.37;5.77;;;;;;;4.36;100.00;94200.00;5071487;28;20203;-64
2022/03/07 09:49:26;;;;;;;8.53;6.03;;;;;;;4.29;100.00;94197.09;5071361;28;20185;-63
2022/03/07 09:51:53;;;;;;;8.33;6.27;;;;;;;4.17;100.00;94172.78;5071541;28;20207;-62
2022/03/07 09:54:18;;;;;;;8.83;5.53;;;;;;;4.05;100.00;94164.34;5071464;28;20656;-62
2022/03/07 09:56:44;;;;;;;8.03;5.90;;;;;;;4.07;100.00;94164.25;5071216;28;20213;-64
2022/03/07 09:59:09;;;;;;;10.47;6.57;;;;;;;4.07;100.00;94159.22;5053544;28;20762;-64
2022/03/07 10:01:36;;;;;;;9.00;5.20;;;;;;;4.15;100.00;94162.81;5078144;22;20294;-64
2022/03/07 10:04:19;;;;;;;11.77;6.37;;;;;;;4.09;100.00;94152.38;5078150;22;20232;-64
2022/03/07 10:06:49;;;;;;;7.67;5.30;;;;;;;4.24;100.00;94161.41;5071525;28;20224;-62
2022/03/07 10:09:21;;;;;;;8.13;5.73;;;;;;;4.36;100.00;94178.19;5071657;28;20177;-62
2022/03/07 10:11:51;;;;;;;7.27;5.23;;;;;;;4.42;100.00;94202.91;5098234;22;20637;-64
2022/03/07 10:14:17;;;;;;;9.20;5.43;;;;;;;4.20;100.00;94185.94;5091480;28;20631;-63
2022/03/07 10:16:44;;;;;;;5.93;4.60;;;;;;;4.08;100.00;94174.19;5073432;28;20281;-64
2022/03/07 10:19:15;;;;;;;7.67;5.30;;;;;;;4.05;100.00;94156.81;5070316;28;20192;-64
2022/03/07 10:21:48;;;;;;;4.97;4.07;;;;;;;4.19;100.00;94154.16;5071162;28;20204;-63
2022/03/07 10:24:14;;;;;;;5.97;4.50;;;;;;;4.23;100.00;94165.63;5071307;28;20246;-64
2022/03/07 10:26:40;;;;;;;5.67;4.17;;;;;;;4.38;100.00;94165.47;5071312;28;20687;-64
2022/03/07 10:29:12;;;;;;;8.20;4.50;;;;;;;4.46;100.00;94166.56;5078028;22;20244;-64
2022/03/07 10:31:39;;;;;;;5.63;4.33;;;;;;;4.56;100.00;94181.84;5070999;28;20591;-63
2022/03/07 10:34:10;;;;;;;3.67;2.63;;;;;;;4.54;100.00;94186.97;5072146;28;20181;-64
2022/03/07 10:36:40;;;;;;;6.73;4.27;;;;;;;4.47;100.00;94200.88;5074928;28;20265;-65
2022/03/07 10:39:12;;;;;;;5.10;4.10;;;;;;;4.48;100.00;94177.34;5056909;28;20327;-63
2022/03/07 10:41:45;;;;;;;6.97;4.93;;;;;;;4.51;100.00;94199.75;5074709;28;20640;-64
2022/03/07 10:44:24;;;;;;;7.10;5.30;;;;;;;4.50;100.00;94207.41;5063142;23;20224;-63
2022/03/07 10:46:49;;;;;;;9.60;5.47;;;;;;;4.51;100.00;94186.38;5074655;28;20675;-62
2022/03/07 10:49:17;;;;;;;8.80;6.23;;;;;;;4.40;100.00;94217.31;5075080;28;20269;-64
2022/03/07 10:51:53;;;;;;;10.37;6.63;;;;;;;4.17;100.00;94182.84;5074588;28;20572;-61
2022/03/07 10:54:21;;;;;;;8.93;6.57;;;;;;;4.26;100.00;94147.00;5074933;28;20179;-61
2022/03/07 10:56:55;;;;;;;14.83;8.83;;;;;;;4.23;100.00;94165.63;5074619;28;20231;-65
2022/03/07 10:59:29;;;;;;;12.73;8.40;;;;;;;4.23;100.00;94164.81;5074664;28;20682;-64
2022/03/07 11:01:59;;;;;;;15.00;7.83;;;;;;;4.19;100.00;94149.13;5074130;28;20193;-64
2022/03/07 11:04:25;;;;;;;14.37;8.90;;;;;;;4.20;100.00;94147.44;5056063;28;20732;-64
2022/03/07 11:06:52;;;;;;;11.20;8.07;;;;;;;4.29;100.00;94139.25;5074647;28;20296;-64
2022/03/07 11:09:17;;;;;;;8.93;7.40;;;;;;;4.40;100.00;94149.38;5074645;28;20190;-64
2022/03/07 11:11:44;;;;;;;8.10;7.10;;;;;;;4.43;100.00;94179.34;5056029;28;20208;-65
2022/03/07 11:14:11;;;;;;;9.40;6.47;;;;;;;4.33;100.00;94183.41;5074487;28;20257;-63
2022/03/07 11:16:38;;;;;;;8.40;6.03;;;;;;;4.34;100.00;94159.88;5074176;28;20204;-63
2022/03/07 11:19:06;;;;;;;8.80;5.97;;;;;;;4.39;100.00;94150.28;5056050;28;20181;-63
2022/03/07 11:21:32;;;;;;;9.47;6.00;;;;;;;4.45;100.00;94154.88;5073866;28;20198;-63
2022/03/07 11:23:57;;;;;;;6.20;4.67;;;;;;;4.42;100.00;94174.44;5074449;28;20185;-63
2022/03/07 11:26:24;;;;;;;11.57;5.50;;;;;;;4.40;100.00;94186.31;5080480;22;20230;-64
2022/03/07 11:28:52;;;;;;;6.47;5.03;;;;;;;4.53;100.00;94177.81;5073849;28;20173;-65